createdAt,value
2018-10-17T00:01:40.904Z,19.40
2018-10-17T00:04:09.169Z,19.40
2018-10-17T00:06:37.456Z,19.40
2018-10-17T00:09:07.457Z,19.40
2018-10-17T00:11:35.872Z,19.40
2018-10-17T00:14:04.388Z,19.30
2018-10-17T00:16:32.652Z,19.30
2018-10-17T00:19:00.956Z,19.30
2018-10-17T00:21:29.216Z,19.20
2018-10-17T00:23:57.478Z,19.20
2018-10-17T00:26:25.800Z,19.20
2018-10-17T00:28:54.125Z,19.10
2018-10-17T00:31:22.479Z,19.10
2018-10-17T00:33:50.740Z,19.00
2018-10-17T00:36:19.029Z,19.00
2018-10-17T00:38:47.266Z,18.90
2018-10-17T00:41:15.585Z,18.90
2018-10-17T00:43:43.866Z,18.80
2018-10-17T00:46:12.176Z,18.70
2018-10-17T00:48:40.497Z,18.70
2018-10-17T00:51:08.781Z,18.60
2018-10-17T00:53:37.035Z,18.60
2018-10-17T00:56:05.982Z,18.50
2018-10-17T00:58:35.069Z,18.50
2018-10-17T01:01:04.516Z,18.50
2018-10-17T01:03:32.764Z,18.40
2018-10-17T01:06:01.049Z,18.40
2018-10-17T01:08:29.316Z,18.40
2018-10-17T01:10:57.642Z,18.40
2018-10-17T01:13:26.116Z,18.50
2018-10-17T01:15:54.388Z,18.50
2018-10-17T01:18:22.647Z,18.50
2018-10-17T01:20:50.895Z,18.50
2018-10-17T01:23:19.177Z,18.60
2018-10-17T01:25:47.436Z,18.60
2018-10-17T01:28:15.696Z,18.60
2018-10-17T01:30:43.993Z,18.60
2018-10-17T01:33:12.272Z,18.60
2018-10-17T01:35:40.537Z,18.60
2018-10-17T01:38:08.814Z,18.60
2018-10-17T01:40:37.048Z,18.50
2018-10-17T01:43:05.325Z,18.50
2018-10-17T01:45:33.612Z,18.50
2018-10-17T01:48:01.909Z,18.50
2018-10-17T01:50:30.225Z,18.40
2018-10-17T01:52:58.518Z,18.40
2018-10-17T01:55:26.851Z,18.40
2018-10-17T01:57:55.080Z,18.30
2018-10-17T02:00:23.364Z,18.30
2018-10-17T02:02:51.838Z,18.20
2018-10-17T02:05:20.284Z,18.20
2018-10-17T02:07:48.586Z,18.10
2018-10-17T02:10:16.860Z,18.10
2018-10-17T02:12:45.121Z,18.10
2018-10-17T02:15:13.393Z,18.10
2018-10-17T02:17:41.644Z,18.00
2018-10-17T02:20:09.916Z,18.00
2018-10-17T02:22:38.199Z,18.00
2018-10-17T02:25:06.662Z,17.90
2018-10-17T02:27:34.907Z,17.90
2018-10-17T02:30:03.342Z,17.90
2018-10-17T02:32:31.452Z,17.80
2018-10-17T02:35:05.250Z,17.80
2018-10-17T02:37:33.492Z,17.80
2018-10-17T02:40:01.821Z,17.70
2018-10-17T02:42:30.074Z,17.70
2018-10-17T02:44:58.425Z,17.70
2018-10-17T02:47:26.657Z,17.60
2018-10-17T02:49:55.096Z,17.60
2018-10-17T02:52:23.358Z,17.50
2018-10-17T02:54:51.658Z,17.50
2018-10-17T02:57:19.945Z,17.50
2018-10-17T02:59:48.221Z,17.50
2018-10-17T03:02:21.535Z,17.50
2018-10-17T03:05:04.391Z,17.50
2018-10-17T03:07:37.484Z,17.50
2018-10-17T03:10:05.863Z,17.40
2018-10-17T03:12:34.180Z,17.40
2018-10-17T03:15:02.513Z,17.40
2018-10-17T03:17:30.806Z,17.40
2018-10-17T03:19:59.106Z,17.40
2018-10-17T03:22:27.440Z,17.40
2018-10-17T03:24:55.842Z,17.40
2018-10-17T03:27:24.028Z,17.40
2018-10-17T03:29:52.469Z,17.30
2018-10-17T03:35:11.453Z,17.30
2018-10-17T03:37:39.668Z,17.30
2018-10-17T03:40:08.083Z,17.30
2018-10-17T03:42:36.333Z,17.30
2018-10-17T03:45:05.021Z,17.20
2018-10-17T03:47:33.340Z,17.20
2018-10-17T03:50:01.679Z,17.20
2018-10-17T03:52:29.933Z,17.20
2018-10-17T03:54:58.331Z,17.20
2018-10-17T03:57:26.661Z,17.20
2018-10-17T03:59:55.075Z,17.20
2018-10-17T04:02:23.379Z,17.10
2018-10-17T04:04:51.716Z,17.10
2018-10-17T04:07:20.114Z,17.10
2018-10-17T04:09:48.364Z,17.00
2018-10-17T04:12:16.664Z,17.00
2018-10-17T04:14:44.944Z,17.00
2018-10-17T04:17:13.519Z,17.00
2018-10-17T04:19:41.605Z,17.00
2018-10-17T04:22:09.884Z,16.90
2018-10-17T04:24:38.193Z,16.90
2018-10-17T04:27:06.517Z,16.90
2018-10-17T04:29:34.857Z,16.90
2018-10-17T04:32:03.293Z,16.80
2018-10-17T04:34:31.660Z,16.80
2018-10-17T04:37:00.149Z,16.80
2018-10-17T04:39:28.378Z,16.80
2018-10-17T04:41:56.786Z,16.70
2018-10-17T04:44:25.071Z,16.70
2018-10-17T04:46:53.427Z,16.60
2018-10-17T04:49:21.704Z,16.60
2018-10-17T04:51:49.972Z,16.60
2018-10-17T04:54:18.337Z,16.50
2018-10-17T04:56:46.635Z,16.50
2018-10-17T04:59:15.215Z,16.40
2018-10-17T05:01:43.421Z,16.40
2018-10-17T05:04:12.248Z,16.40
2018-10-17T05:06:40.545Z,16.30
2018-10-17T05:09:09.941Z,16.30
2018-10-17T05:14:29.256Z,16.30
2018-10-17T05:16:57.591Z,16.20
2018-10-17T05:19:25.861Z,16.20
2018-10-17T05:21:54.160Z,16.20
2018-10-17T05:24:22.469Z,16.20
2018-10-17T05:26:50.820Z,16.10
2018-10-17T05:29:20.265Z,16.10
2018-10-17T05:31:48.545Z,16.10
2018-10-17T05:34:16.865Z,16.10
2018-10-17T05:36:45.141Z,16.10
2018-10-17T05:39:13.513Z,16.10
2018-10-17T05:41:41.845Z,16.00
2018-10-17T05:44:10.232Z,16.00
2018-10-17T05:46:38.497Z,16.00
2018-10-17T05:49:07.010Z,16.00
2018-10-17T05:51:35.220Z,15.90
2018-10-17T05:54:03.577Z,15.90
2018-10-17T05:56:31.900Z,15.90
2018-10-17T05:59:00.235Z,15.80
2018-10-17T06:01:28.631Z,15.80
2018-10-17T06:12:49.800Z,15.10
2018-10-17T06:15:18.161Z,14.90
2018-10-17T06:17:46.538Z,14.80
2018-10-17T06:20:14.818Z,14.80
2018-10-17T06:22:43.126Z,15.00
2018-10-17T06:25:11.638Z,15.00
2018-10-17T06:27:39.909Z,15.10
2018-10-17T06:30:09.543Z,15.20
2018-10-17T06:32:37.848Z,15.30
2018-10-17T06:35:06.703Z,15.40
2018-10-17T06:37:35.226Z,15.40
2018-10-17T06:40:03.549Z,15.50
2018-10-17T06:42:31.989Z,15.50
2018-10-17T06:45:00.268Z,15.50
2018-10-17T06:47:28.553Z,15.50
2018-10-17T06:49:56.919Z,15.60
2018-10-17T06:52:25.196Z,15.60
2018-10-17T06:54:53.608Z,15.60
2018-10-17T06:57:21.924Z,15.60
2018-10-17T06:59:50.240Z,15.60
2018-10-17T07:02:19.138Z,15.70
2018-10-17T07:04:47.425Z,15.70
2018-10-17T07:07:15.802Z,15.70
2018-10-17T07:09:44.257Z,15.70
2018-10-17T07:12:12.539Z,15.70
2018-10-17T07:14:40.882Z,15.60
2018-10-17T07:17:09.233Z,15.50
2018-10-17T07:19:37.492Z,15.50
2018-10-17T07:22:05.857Z,15.50
2018-10-17T07:24:34.341Z,15.40
2018-10-17T07:27:03.143Z,15.40
2018-10-17T07:29:31.678Z,15.30
2018-10-17T07:31:59.876Z,15.30
2018-10-17T07:34:28.184Z,15.40
2018-10-17T07:36:56.493Z,15.40
2018-10-17T07:39:24.804Z,15.40
2018-10-17T07:41:53.364Z,15.40
2018-10-17T07:44:21.601Z,15.50
2018-10-17T07:46:49.912Z,15.50
2018-10-17T07:49:18.245Z,15.60
2018-10-17T07:51:46.790Z,15.60
2018-10-17T07:54:15.432Z,15.70
2018-10-17T07:56:43.601Z,15.80
2018-10-17T07:59:11.906Z,15.80
2018-10-17T08:01:40.226Z,15.90
2018-10-17T08:04:08.560Z,16.00
2018-10-17T08:06:37.043Z,16.00
2018-10-17T08:09:08.681Z,16.00
2018-10-17T08:11:37.324Z,16.00
2018-10-17T08:14:05.857Z,16.10
2018-10-17T08:16:34.138Z,16.10
2018-10-17T08:19:02.534Z,16.10
2018-10-17T08:21:31.130Z,16.10
2018-10-17T08:23:59.736Z,16.20
2018-10-17T08:26:28.200Z,16.20
2018-10-17T08:28:56.466Z,16.20
2018-10-17T08:31:24.846Z,16.30
2018-10-17T08:33:53.266Z,16.30
2018-10-17T08:36:21.746Z,16.40
2018-10-17T08:38:49.906Z,16.50
2018-10-17T08:41:18.197Z,16.50
2018-10-17T08:43:46.501Z,16.60
2018-10-17T08:46:15.245Z,16.60
2018-10-17T08:48:43.837Z,16.60
2018-10-17T08:51:12.139Z,16.70
2018-10-17T08:53:40.536Z,16.70
2018-10-17T08:56:08.893Z,16.80
2018-10-17T08:58:37.229Z,16.90
2018-10-17T09:01:05.804Z,16.90
2018-10-17T09:03:34.251Z,17.00
2018-10-17T09:06:02.633Z,17.10
2018-10-17T09:08:30.869Z,17.20
2018-10-17T09:10:59.277Z,17.20
2018-10-17T09:13:27.667Z,17.30
2018-10-17T09:15:55.963Z,17.30
2018-10-17T09:18:24.237Z,17.40
2018-10-17T09:20:52.774Z,17.50
2018-10-17T09:23:20.899Z,17.60
2018-10-17T09:25:49.205Z,17.70
2018-10-17T09:28:17.561Z,17.80
2018-10-17T09:30:45.882Z,17.90
2018-10-17T09:33:14.108Z,18.00
2018-10-17T09:35:42.460Z,18.00
2018-10-17T09:38:10.742Z,18.20
2018-10-17T09:40:39.101Z,18.20
2018-10-17T09:43:07.516Z,18.40
2018-10-17T09:45:35.975Z,18.40
2018-10-17T09:48:04.953Z,18.50
2018-10-17T09:50:33.251Z,18.60
2018-10-17T09:53:01.549Z,18.60
2018-10-17T09:55:30.373Z,18.60
2018-10-17T09:57:58.780Z,18.60
2018-10-17T10:00:32.317Z,18.60
2018-10-17T10:03:00.657Z,18.60
2018-10-17T10:05:28.979Z,18.60
2018-10-17T10:07:57.401Z,18.70
2018-10-17T10:10:25.713Z,18.80
2018-10-17T10:12:54.136Z,18.90
2018-10-17T10:15:22.846Z,19.00
2018-10-17T10:17:51.181Z,19.10
2018-10-17T10:20:19.485Z,19.20
2018-10-17T10:22:47.950Z,19.30
2018-10-17T10:25:16.328Z,19.50
2018-10-17T10:27:44.634Z,19.60
2018-10-17T10:30:13.055Z,19.70
2018-10-17T10:32:41.333Z,19.80
2018-10-17T10:35:09.662Z,20.00
2018-10-17T10:37:37.973Z,20.00
2018-10-17T10:40:06.895Z,20.10
2018-10-17T10:42:35.237Z,20.20
2018-10-17T10:45:03.772Z,20.20
2018-10-17T10:47:32.123Z,20.20
2018-10-17T10:50:00.542Z,20.30
2018-10-17T10:52:28.817Z,20.40
2018-10-17T10:54:57.094Z,20.40
2018-10-17T10:57:25.398Z,20.50
2018-10-17T10:59:53.773Z,20.50
2018-10-17T11:02:22.050Z,20.60
2018-10-17T11:04:50.456Z,20.70
2018-10-17T11:07:18.655Z,20.80
2018-10-17T11:09:46.993Z,20.90
2018-10-17T11:12:15.276Z,21.00
2018-10-17T11:14:43.955Z,21.10
2018-10-17T11:17:12.115Z,21.30
2018-10-17T11:19:40.393Z,21.50
2018-10-17T11:22:08.688Z,21.60
2018-10-17T11:24:36.979Z,21.70
2018-10-17T11:27:05.425Z,21.70
2018-10-17T11:29:33.765Z,21.80
2018-10-17T11:32:02.252Z,21.90
2018-10-17T11:34:30.515Z,21.90
2018-10-17T11:36:58.806Z,21.90
2018-10-17T11:39:27.129Z,21.90
2018-10-17T11:41:55.506Z,21.90
2018-10-17T11:44:24.106Z,21.80
2018-10-17T11:46:52.446Z,21.70
2018-10-17T11:49:20.701Z,21.70
2018-10-17T11:51:48.996Z,21.70
2018-10-17T11:54:17.361Z,21.60
2018-10-17T11:56:45.689Z,21.50
2018-10-17T12:02:05.045Z,21.60
2018-10-17T12:04:33.577Z,21.50
2018-10-17T12:07:01.887Z,21.50
2018-10-17T12:09:30.225Z,21.50
2018-10-17T12:11:58.631Z,21.40
2018-10-17T12:14:26.860Z,21.40
2018-10-17T12:16:55.204Z,21.40
2018-10-17T12:19:23.500Z,21.40
2018-10-17T12:21:51.805Z,21.40
2018-10-17T12:24:20.403Z,21.40
2018-10-17T12:26:48.699Z,21.30
2018-10-17T12:29:17.065Z,21.30
2018-10-17T12:31:45.356Z,21.40
2018-10-17T12:34:13.644Z,21.40
2018-10-17T12:36:41.970Z,21.50
2018-10-17T12:39:12.229Z,21.50
2018-10-17T12:41:40.862Z,21.70
2018-10-17T12:44:08.980Z,21.90
2018-10-17T12:46:37.459Z,22.10
2018-10-17T12:49:05.796Z,22.30
2018-10-17T12:51:34.114Z,22.40
2018-10-17T12:54:02.509Z,22.40
2018-10-17T12:56:30.843Z,22.50
2018-10-17T12:58:59.193Z,22.70
2018-10-17T13:01:27.585Z,22.80
2018-10-17T13:03:55.876Z,22.90
2018-10-17T13:06:24.489Z,23.10
2018-10-17T13:08:52.781Z,23.10
2018-10-17T13:11:21.130Z,23.20
2018-10-17T13:13:49.520Z,23.40
2018-10-17T13:16:18.261Z,23.50
2018-10-17T13:18:46.701Z,23.60
2018-10-17T13:21:15.088Z,24.10
2018-10-17T13:23:43.590Z,25.20
2018-10-17T13:26:11.925Z,26.40
2018-10-17T13:28:40.255Z,27.60
2018-10-17T13:31:08.643Z,28.90
2018-10-17T13:33:36.994Z,30.00
2018-10-17T13:36:05.338Z,31.20
2018-10-17T13:38:33.683Z,32.60
2018-10-17T13:41:02.039Z,33.80
2018-10-17T13:43:30.304Z,34.90
2018-10-17T13:45:58.560Z,35.80
2018-10-17T13:48:26.941Z,36.70
2018-10-17T13:50:55.244Z,37.40
2018-10-17T13:53:23.613Z,37.80
2018-10-17T13:55:51.978Z,38.10
2018-10-17T13:58:20.460Z,38.10
2018-10-17T14:00:48.751Z,38.10
2018-10-17T14:03:17.061Z,38.10
2018-10-17T14:05:45.369Z,38.30
2018-10-17T14:08:13.689Z,38.30
2018-10-17T14:10:41.963Z,38.10
2018-10-17T14:13:10.306Z,37.80
2018-10-17T14:15:38.615Z,37.60
2018-10-17T14:18:06.970Z,37.40
2018-10-17T14:20:35.372Z,37.20
2018-10-17T14:23:03.716Z,37.00
2018-10-17T14:25:32.074Z,36.90
2018-10-17T14:28:00.498Z,36.80
2018-10-17T14:30:28.892Z,36.80
2018-10-17T14:32:57.234Z,36.90
2018-10-17T14:35:25.504Z,37.00
2018-10-17T14:37:53.938Z,37.10
2018-10-17T14:40:22.167Z,37.10
2018-10-17T14:42:50.488Z,37.00
2018-10-17T14:45:19.103Z,36.70
2018-10-17T14:47:47.339Z,36.10
2018-10-17T14:50:15.660Z,35.60
2018-10-17T14:52:43.997Z,34.50
2018-10-17T14:55:12.290Z,33.30
2018-10-17T14:57:40.658Z,32.10
2018-10-17T15:00:12.437Z,31.00
2018-10-17T15:02:42.307Z,30.00
2018-10-17T15:05:11.053Z,29.30
2018-10-17T15:07:39.951Z,28.80
2018-10-17T15:10:08.394Z,28.50
2018-10-17T15:12:36.749Z,28.00
2018-10-17T15:15:05.867Z,27.70
2018-10-17T15:17:34.352Z,27.50
2018-10-17T15:20:02.661Z,27.30
2018-10-17T15:22:30.993Z,27.00
2018-10-17T15:24:59.340Z,26.70
2018-10-17T15:27:27.658Z,26.40
2018-10-17T15:29:55.960Z,26.20
2018-10-17T15:32:24.236Z,26.00
2018-10-17T15:34:52.557Z,25.80
2018-10-17T15:37:20.829Z,25.80
2018-10-17T15:39:49.124Z,25.70
2018-10-17T15:42:17.524Z,25.50
2018-10-17T15:44:45.796Z,25.30
2018-10-17T15:47:14.357Z,25.20
2018-10-17T15:49:42.606Z,25.10
2018-10-17T15:52:10.980Z,24.90
2018-10-17T15:54:39.248Z,24.80
2018-10-17T15:57:07.892Z,24.70
2018-10-17T15:59:36.167Z,24.50
2018-10-17T16:02:04.736Z,24.40
2018-10-17T16:04:33.056Z,24.30
2018-10-17T16:07:01.438Z,24.20
2018-10-17T16:09:29.717Z,24.10
2018-10-17T16:11:58.141Z,23.90
2018-10-17T16:14:26.466Z,23.80
2018-10-17T16:16:54.879Z,23.60
2018-10-17T16:19:23.141Z,23.50
2018-10-17T16:21:51.433Z,23.40
2018-10-17T16:24:19.810Z,23.20
2018-10-17T16:26:48.046Z,23.10
2018-10-17T16:29:16.656Z,23.00
2018-10-17T16:31:44.974Z,22.90
2018-10-17T16:34:13.337Z,22.80
2018-10-17T16:36:41.624Z,22.70
2018-10-17T16:39:11.324Z,22.60
2018-10-17T16:41:39.643Z,22.50
2018-10-17T16:44:08.508Z,22.40
2018-10-17T16:46:37.156Z,22.30
2018-10-17T16:49:05.953Z,22.20
2018-10-17T16:51:34.271Z,22.20
2018-10-17T16:54:02.907Z,22.10
2018-10-17T16:56:31.338Z,22.10
2018-10-17T16:58:59.675Z,22.00
2018-10-17T17:01:28.043Z,21.80
2018-10-17T17:03:56.560Z,21.80
2018-10-17T17:06:25.115Z,21.70
2018-10-17T17:08:53.786Z,21.60
2018-10-17T17:11:22.355Z,21.50
2018-10-17T17:13:50.676Z,21.50
2018-10-17T17:16:19.083Z,21.40
2018-10-17T17:18:47.400Z,21.30
2018-10-17T17:21:16.075Z,21.20
2018-10-17T17:23:44.379Z,21.20
2018-10-17T17:26:12.671Z,21.10
2018-10-17T17:28:41.057Z,21.00
2018-10-17T17:31:09.409Z,20.90
2018-10-17T17:33:37.819Z,20.80
2018-10-17T17:36:06.173Z,20.70
2018-10-17T17:38:35.321Z,20.60
2018-10-17T17:41:03.630Z,20.60
2018-10-17T17:43:32.060Z,20.50
2018-10-17T17:46:00.466Z,20.40
2018-10-17T17:48:28.736Z,20.40
2018-10-17T17:50:57.008Z,20.30
2018-10-17T17:53:25.361Z,20.20
2018-10-17T17:55:53.633Z,20.20
2018-10-17T17:58:22.004Z,20.10
2018-10-17T18:00:50.260Z,20.00
2018-10-17T18:03:18.573Z,20.00
2018-10-17T18:05:46.866Z,20.00
2018-10-17T18:08:15.193Z,19.90
2018-10-17T18:10:43.514Z,19.80
2018-10-17T18:13:11.809Z,19.80
2018-10-17T18:15:40.320Z,19.70
2018-10-17T18:18:08.610Z,19.60
2018-10-17T18:20:36.926Z,19.60
2018-10-17T18:23:05.940Z,19.50
2018-10-17T18:25:34.283Z,19.40
2018-10-17T18:28:03.123Z,19.40
2018-10-17T18:30:31.343Z,19.30
2018-10-17T18:32:59.632Z,19.30
2018-10-17T18:35:28.110Z,19.30
2018-10-17T18:37:56.449Z,19.30
2018-10-17T18:40:24.820Z,19.20
2018-10-17T18:42:53.982Z,19.20
2018-10-17T18:45:22.963Z,19.10
2018-10-17T18:47:51.605Z,19.10
2018-10-17T18:50:20.104Z,19.10
2018-10-17T18:52:48.887Z,19.00
2018-10-17T18:55:17.440Z,19.00
2018-10-17T18:57:46.177Z,19.00
2018-10-17T19:00:15.467Z,18.90
2018-10-17T19:02:43.936Z,18.90
2018-10-17T19:05:12.483Z,18.80
2018-10-17T19:07:41.012Z,18.80
2018-10-17T19:10:10.759Z,18.80
2018-10-17T19:12:39.708Z,18.80
2018-10-17T19:15:08.847Z,18.70
2018-10-17T19:17:37.439Z,18.70
2018-10-17T19:20:06.251Z,18.70
2018-10-17T19:22:34.552Z,18.70
2018-10-17T19:25:03.865Z,18.60
2018-10-17T19:27:32.448Z,18.60
2018-10-17T19:30:00.782Z,18.60
2018-10-17T19:32:29.325Z,18.50
2018-10-17T19:34:58.204Z,18.50
2018-10-17T19:37:26.830Z,18.50
2018-10-17T19:39:55.287Z,18.50
2018-10-17T19:42:23.770Z,18.40
2018-10-17T19:44:52.202Z,18.40
2018-10-17T19:47:20.725Z,18.40
2018-10-17T19:49:49.236Z,18.30
2018-10-17T19:52:18.294Z,18.30
2018-10-17T19:54:46.637Z,18.30
2018-10-17T19:57:14.978Z,18.30
2018-10-17T19:59:43.352Z,18.30
2018-10-17T20:02:11.734Z,18.30
2018-10-17T20:04:40.167Z,18.30
2018-10-17T20:07:08.806Z,18.30
2018-10-17T20:09:37.649Z,18.30
2018-10-17T20:12:06.400Z,18.20
2018-10-17T20:14:34.796Z,18.20
2018-10-17T20:17:03.321Z,18.10
2018-10-17T20:19:31.979Z,18.10
2018-10-17T20:22:00.548Z,18.10
2018-10-17T20:24:29.149Z,18.00
2018-10-17T20:26:57.795Z,18.00
2018-10-17T20:29:26.280Z,18.00
2018-10-17T20:31:55.148Z,18.00
2018-10-17T20:34:23.830Z,17.90
2018-10-17T20:36:52.122Z,17.90
2018-10-17T20:39:20.449Z,17.90
2018-10-17T20:41:48.800Z,17.90
2018-10-17T20:44:17.121Z,17.80
2018-10-17T20:46:45.409Z,17.80
2018-10-17T20:49:13.789Z,17.90
2018-10-17T20:51:42.136Z,17.90
2018-10-17T20:54:10.428Z,17.90
2018-10-17T20:56:38.719Z,17.90
2018-10-17T20:59:07.024Z,17.90
2018-10-17T21:01:35.847Z,17.90
2018-10-17T21:04:04.455Z,17.90
2018-10-17T21:06:32.737Z,17.90
2018-10-17T21:09:01.072Z,17.90
2018-10-17T21:11:29.372Z,18.00
2018-10-17T21:13:57.673Z,17.90
2018-10-17T21:16:26.133Z,17.90
2018-10-17T21:18:54.486Z,17.90
2018-10-17T21:21:22.689Z,17.90
2018-10-17T21:23:50.998Z,17.90
2018-10-17T21:26:19.277Z,17.90
2018-10-17T21:28:47.605Z,18.00
2018-10-17T21:31:15.888Z,17.90
2018-10-17T21:33:44.257Z,17.90
2018-10-17T21:36:12.573Z,17.90
2018-10-17T21:38:40.876Z,17.90
2018-10-17T21:41:09.182Z,17.90
2018-10-17T21:43:37.497Z,17.90
2018-10-17T21:46:05.909Z,17.90
2018-10-17T21:48:34.227Z,17.80
2018-10-17T21:51:02.549Z,17.80
2018-10-17T21:53:30.949Z,17.80
2018-10-17T21:55:59.316Z,17.80
2018-10-17T21:58:27.584Z,17.80
2018-10-17T22:00:55.917Z,17.80
2018-10-17T22:03:24.212Z,17.70
2018-10-17T22:05:52.530Z,17.70
2018-10-17T22:08:20.861Z,17.70
2018-10-17T22:10:49.192Z,17.70
2018-10-17T22:13:17.508Z,17.70
2018-10-17T22:15:45.894Z,17.70
2018-10-17T22:18:14.224Z,17.70
2018-10-17T22:20:42.516Z,17.70
2018-10-17T22:23:11.077Z,17.60
2018-10-17T22:25:39.497Z,17.70
2018-10-17T22:28:07.772Z,17.70
2018-10-17T22:30:36.104Z,17.70
2018-10-17T22:33:04.412Z,17.70
2018-10-17T22:35:32.736Z,17.70
2018-10-17T22:38:01.076Z,17.70
2018-10-17T22:40:29.328Z,17.70
2018-10-17T22:42:57.637Z,17.70
2018-10-17T22:45:25.916Z,17.70
2018-10-17T22:47:54.268Z,17.70
2018-10-17T22:50:22.566Z,17.70
2018-10-17T22:52:51.009Z,17.70
2018-10-17T22:55:19.496Z,17.70
2018-10-17T22:57:47.782Z,17.70
2018-10-17T23:00:16.050Z,17.70
2018-10-17T23:02:44.370Z,17.70
2018-10-17T23:05:12.684Z,17.70
2018-10-17T23:07:40.986Z,17.70
2018-10-17T23:10:09.255Z,17.70
2018-10-17T23:12:37.565Z,17.60
2018-10-17T23:15:10.234Z,17.60
2018-10-17T23:17:38.589Z,17.60
2018-10-17T23:20:07.053Z,17.60
2018-10-17T23:22:35.315Z,17.60
2018-10-17T23:25:03.881Z,17.60
2018-10-17T23:27:32.188Z,17.70
2018-10-17T23:30:00.661Z,17.60
2018-10-17T23:32:28.936Z,17.60
2018-10-17T23:34:57.464Z,17.60
2018-10-17T23:37:25.760Z,17.60
2018-10-17T23:39:54.049Z,17.60
2018-10-17T23:42:22.394Z,17.70
2018-10-17T23:45:02.672Z,17.60
2018-10-17T23:47:31.045Z,17.70
2018-10-17T23:49:59.403Z,17.60
2018-10-17T23:52:27.693Z,17.60
2018-10-17T23:54:55.949Z,17.60
2018-10-17T23:57:25.602Z,17.60
2018-10-17T23:59:55.870Z,17.60
